sensor_id;sensor_type;location;lat;lon;timestamp;temperature;humidity
44671;DHT22;48397;53.016;-2.260;2022-09-09T00:04:37;13.30;99.90
44671;DHT22;48397;53.016;-2.260;2022-09-09T00:07:47;13.30;99.90
44671;DHT22;48397;53.016;-2.260;2022-09-09T00:10:20;13.20;99.90
44671;DHT22;48397;53.016;-2.260;2022-09-09T00:13:09;13.30;99.90
44671;DHT22;48397;53.016;-2.260;2022-09-09T00:15:58;13.30;99.90
44671;DHT22;48397;53.016;-2.260;2022-09-09T00:21:35;13.20;99.90
44671;DHT22;48397;53.016;-2.260;2022-09-09T00:24:32;13.30;99.90
44671;DHT22;48397;53.016;-2.260;2022-09-09T00:27:08;13.30;99.90
44671;DHT22;48397;53.016;-2.260;2022-09-09T00:29:47;13.30;99.90
44671;DHT22;48397;53.016;-2.260;2022-09-09T00:32:18;13.30;99.90
44671;DHT22;48397;53.016;-2.260;2022-09-09T00:34:53;11.60;99.90
44671;DHT22;48397;53.016;-2.260;2022-09-09T00:37:22;13.20;99.90
44671;DHT22;48397;53.016;-2.260;2022-09-09T00:39:56;13.10;99.90
44671;DHT22;48397;53.016;-2.260;2022-09-09T00:42:37;13.10;99.90
44671;DHT22;48397;53.016;-2.260;2022-09-09T00:48:06;13.20;99.90
44671;DHT22;48397;53.016;-2.260;2022-09-09T00:50:57;13.30;99.90
44671;DHT22;48397;53.016;-2.260;2022-09-09T00:53:38;13.30;99.90
44671;DHT22;48397;53.016;-2.260;2022-09-09T00:56:12;13.30;99.90
44671;DHT22;48397;53.016;-2.260;2022-09-09T00:58:43;13.30;99.90
44671;DHT22;48397;53.016;-2.260;2022-09-09T01:01:19;13.30;99.90
44671;DHT22;48397;53.016;-2.260;2022-09-09T01:11:27;13.50;99.90
44671;DHT22;48397;53.016;-2.260;2022-09-09T01:17:07;13.60;99.90
44671;DHT22;48397;53.016;-2.260;2022-09-09T01:19:47;13.60;99.90
44671;DHT22;48397;53.016;-2.260;2022-09-09T01:28:27;13.60;99.90
44671;DHT22;48397;53.016;-2.260;2022-09-09T01:31:03;13.70;99.90
44671;DHT22;48397;53.016;-2.260;2022-09-09T01:33:38;13.60;99.90
44671;DHT22;48397;53.016;-2.260;2022-09-09T01:36:08;13.70;99.90
44671;DHT22;48397;53.016;-2.260;2022-09-09T01:38:45;13.60;99.90
44671;DHT22;48397;53.016;-2.260;2022-09-09T01:41:14;13.60;99.90
44671;DHT22;48397;53.016;-2.260;2022-09-09T01:43:48;14.00;99.90
44671;DHT22;48397;53.016;-2.260;2022-09-09T01:46:17;13.70;99.90
44671;DHT22;48397;53.016;-2.260;2022-09-09T01:48:46;13.90;99.90
44671;DHT22;48397;53.016;-2.260;2022-09-09T01:51:15;13.80;99.90
44671;DHT22;48397;53.016;-2.260;2022-09-09T01:53:43;13.90;99.90
44671;DHT22;48397;53.016;-2.260;2022-09-09T02:02:08;14.10;99.90
44671;DHT22;48397;53.016;-2.260;2022-09-09T02:04:44;14.10;99.90
44671;DHT22;48397;53.016;-2.260;2022-09-09T02:09:59;14.20;99.90
44671;DHT22;48397;53.016;-2.260;2022-09-09T02:12:32;14.20;99.90
44671;DHT22;48397;53.016;-2.260;2022-09-09T02:15:12;14.30;99.90
44671;DHT22;48397;53.016;-2.260;2022-09-09T02:17:50;14.20;99.90
44671;DHT22;48397;53.016;-2.260;2022-09-09T02:20:20;14.30;99.90
44671;DHT22;48397;53.016;-2.260;2022-09-09T02:22:56;14.30;99.90
44671;DHT22;48397;53.016;-2.260;2022-09-09T02:25:28;14.30;99.90
44671;DHT22;48397;53.016;-2.260;2022-09-09T02:28:06;14.30;99.90
44671;DHT22;48397;53.016;-2.260;2022-09-09T02:30:39;14.20;99.90
44671;DHT22;48397;53.016;-2.260;2022-09-09T02:33:11;14.30;99.90
44671;DHT22;48397;53.016;-2.260;2022-09-09T02:35:47;14.30;99.90
44671;DHT22;48397;53.016;-2.260;2022-09-09T02:38:19;14.40;99.90
44671;DHT22;48397;53.016;-2.260;2022-09-09T02:40:58;14.40;99.90
44671;DHT22;48397;53.016;-2.260;2022-09-09T02:43:31;14.40;99.90
44671;DHT22;48397;53.016;-2.260;2022-09-09T02:49:03;14.60;99.90
44671;DHT22;48397;53.016;-2.260;2022-09-09T02:52:03;14.50;99.90
44671;DHT22;48397;53.016;-2.260;2022-09-09T02:54:37;14.60;99.90
44671;DHT22;48397;53.016;-2.260;2022-09-09T02:57:23;14.70;99.90
44671;DHT22;48397;53.016;-2.260;2022-09-09T02:59:52;14.70;99.90
44671;DHT22;48397;53.016;-2.260;2022-09-09T03:02:20;14.80;99.90
44671;DHT22;48397;53.016;-2.260;2022-09-09T03:04:53;14.80;99.90
44671;DHT22;48397;53.016;-2.260;2022-09-09T03:07:22;14.80;99.90
44671;DHT22;48397;53.016;-2.260;2022-09-09T03:09:51;14.80;99.90
44671;DHT22;48397;53.016;-2.260;2022-09-09T03:12:25;14.80;99.90
44671;DHT22;48397;53.016;-2.260;2022-09-09T03:14:53;14.80;99.90
44671;DHT22;48397;53.016;-2.260;2022-09-09T03:17:21;14.80;99.90
44671;DHT22;48397;53.016;-2.260;2022-09-09T03:19:53;14.80;99.90
44671;DHT22;48397;53.016;-2.260;2022-09-09T03:22:22;14.80;99.90
44671;DHT22;48397;53.016;-2.260;2022-09-09T03:27:18;14.80;99.90
44671;DHT22;48397;53.016;-2.260;2022-09-09T03:29:47;14.80;99.90
44671;DHT22;48397;53.016;-2.260;2022-09-09T03:32:22;14.80;99.90
44671;DHT22;48397;53.016;-2.260;2022-09-09T03:34:50;14.80;99.90
44671;DHT22;48397;53.016;-2.260;2022-09-09T03:37:19;14.80;99.90
44671;DHT22;48397;53.016;-2.260;2022-09-09T03:42:18;14.80;99.90
44671;DHT22;48397;53.016;-2.260;2022-09-09T03:44:50;14.80;99.90
44671;DHT22;48397;53.016;-2.260;2022-09-09T03:47:21;14.90;99.90
44671;DHT22;48397;53.016;-2.260;2022-09-09T03:49:53;14.80;99.90
44671;DHT22;48397;53.016;-2.260;2022-09-09T03:52:21;14.90;99.90
44671;DHT22;48397;53.016;-2.260;2022-09-09T03:54:54;14.90;99.90
44671;DHT22;48397;53.016;-2.260;2022-09-09T03:57:21;14.90;99.90
44671;DHT22;48397;53.016;-2.260;2022-09-09T03:59:51;14.90;99.90
44671;DHT22;48397;53.016;-2.260;2022-09-09T04:02:18;14.80;99.90
44671;DHT22;48397;53.016;-2.260;2022-09-09T04:04:46;14.80;99.90
44671;DHT22;48397;53.016;-2.260;2022-09-09T04:07:15;14.80;99.90
44671;DHT22;48397;53.016;-2.260;2022-09-09T04:09:43;14.80;99.90
44671;DHT22;48397;53.016;-2.260;2022-09-09T04:12:11;14.70;99.90
44671;DHT22;48397;53.016;-2.260;2022-09-09T04:14:41;14.70;99.90
44671;DHT22;48397;53.016;-2.260;2022-09-09T04:17:09;14.70;99.90
44671;DHT22;48397;53.016;-2.260;2022-09-09T04:19:37;14.70;99.90
44671;DHT22;48397;53.016;-2.260;2022-09-09T04:22:04;14.70;99.90
44671;DHT22;48397;53.016;-2.260;2022-09-09T04:24:32;14.60;99.90
44671;DHT22;48397;53.016;-2.260;2022-09-09T04:27:01;14.60;99.90
44671;DHT22;48397;53.016;-2.260;2022-09-09T04:29:30;14.60;99.90
44671;DHT22;48397;53.016;-2.260;2022-09-09T04:31:57;14.60;99.90
44671;DHT22;48397;53.016;-2.260;2022-09-09T04:34:25;14.60;99.90
44671;DHT22;48397;53.016;-2.260;2022-09-09T04:36:54;14.60;99.90
44671;DHT22;48397;53.016;-2.260;2022-09-09T04:39:23;14.60;99.90
44671;DHT22;48397;53.016;-2.260;2022-09-09T04:41:51;14.60;99.90
44671;DHT22;48397;53.016;-2.260;2022-09-09T04:44:22;14.60;99.90
44671;DHT22;48397;53.016;-2.260;2022-09-09T04:46:49;14.60;99.90
44671;DHT22;48397;53.016;-2.260;2022-09-09T04:49:18;14.60;99.90
44671;DHT22;48397;53.016;-2.260;2022-09-09T04:51:45;14.60;99.90
44671;DHT22;48397;53.016;-2.260;2022-09-09T04:54:14;14.60;99.90
44671;DHT22;48397;53.016;-2.260;2022-09-09T04:56:44;14.50;99.90
44671;DHT22;48397;53.016;-2.260;2022-09-09T04:59:12;14.50;99.90
44671;DHT22;48397;53.016;-2.260;2022-09-09T05:01:44;14.50;99.90
44671;DHT22;48397;53.016;-2.260;2022-09-09T05:04:13;14.50;99.90
44671;DHT22;48397;53.016;-2.260;2022-09-09T05:06:43;14.50;99.90
44671;DHT22;48397;53.016;-2.260;2022-09-09T05:09:12;14.50;99.90
44671;DHT22;48397;53.016;-2.260;2022-09-09T05:11:40;14.50;99.90
44671;DHT22;48397;53.016;-2.260;2022-09-09T05:14:30;14.50;99.90
44671;DHT22;48397;53.016;-2.260;2022-09-09T05:17:00;14.50;99.90
44671;DHT22;48397;53.016;-2.260;2022-09-09T05:19:28;14.90;99.90
44671;DHT22;48397;53.016;-2.260;2022-09-09T05:24:32;14.50;99.90
44671;DHT22;48397;53.016;-2.260;2022-09-09T05:27:02;14.50;99.90
44671;DHT22;48397;53.016;-2.260;2022-09-09T05:29:30;14.50;99.90
44671;DHT22;48397;53.016;-2.260;2022-09-09T05:32:03;14.50;99.90
44671;DHT22;48397;53.016;-2.260;2022-09-09T05:34:31;14.50;99.90
44671;DHT22;48397;53.016;-2.260;2022-09-09T05:37:00;14.50;99.90
44671;DHT22;48397;53.016;-2.260;2022-09-09T05:39:27;14.50;99.90
44671;DHT22;48397;53.016;-2.260;2022-09-09T05:41:56;14.50;99.90
44671;DHT22;48397;53.016;-2.260;2022-09-09T05:44:24;14.50;99.90
44671;DHT22;48397;53.016;-2.260;2022-09-09T05:46:55;14.50;99.90
44671;DHT22;48397;53.016;-2.260;2022-09-09T05:49:23;14.50;99.90
44671;DHT22;48397;53.016;-2.260;2022-09-09T05:51:51;14.40;99.90
44671;DHT22;48397;53.016;-2.260;2022-09-09T05:54:20;14.50;99.90
44671;DHT22;48397;53.016;-2.260;2022-09-09T05:56:51;14.50;99.90
44671;DHT22;48397;53.016;-2.260;2022-09-09T05:59:20;14.50;99.90
44671;DHT22;48397;53.016;-2.260;2022-09-09T06:01:50;14.50;99.90
44671;DHT22;48397;53.016;-2.260;2022-09-09T06:04:26;14.40;99.90
44671;DHT22;48397;53.016;-2.260;2022-09-09T06:06:54;14.40;99.90
44671;DHT22;48397;53.016;-2.260;2022-09-09T06:09:22;14.50;99.90
44671;DHT22;48397;53.016;-2.260;2022-09-09T06:11:50;14.50;99.90
44671;DHT22;48397;53.016;-2.260;2022-09-09T06:14:21;14.60;99.90
44671;DHT22;48397;53.016;-2.260;2022-09-09T06:16:51;14.50;99.90
44671;DHT22;48397;53.016;-2.260;2022-09-09T06:19:22;14.60;99.90
44671;DHT22;48397;53.016;-2.260;2022-09-09T06:21:58;14.60;99.90
44671;DHT22;48397;53.016;-2.260;2022-09-09T06:24:28;14.60;99.90
44671;DHT22;48397;53.016;-2.260;2022-09-09T06:26:59;14.70;99.90
44671;DHT22;48397;53.016;-2.260;2022-09-09T06:29:31;14.60;99.90
44671;DHT22;48397;53.016;-2.260;2022-09-09T06:32:02;14.70;99.90
44671;DHT22;48397;53.016;-2.260;2022-09-09T06:34:31;14.70;99.90
44671;DHT22;48397;53.016;-2.260;2022-09-09T06:37:00;14.80;99.90
44671;DHT22;48397;53.016;-2.260;2022-09-09T06:39:35;14.80;99.90
44671;DHT22;48397;53.016;-2.260;2022-09-09T06:42:04;14.80;99.90
44671;DHT22;48397;53.016;-2.260;2022-09-09T06:44:49;14.90;99.90
44671;DHT22;48397;53.016;-2.260;2022-09-09T06:47:37;14.90;99.90
44671;DHT22;48397;53.016;-2.260;2022-09-09T06:50:05;15.00;99.90
44671;DHT22;48397;53.016;-2.260;2022-09-09T06:52:35;15.00;99.90
44671;DHT22;48397;53.016;-2.260;2022-09-09T06:55:04;15.10;99.90
44671;DHT22;48397;53.016;-2.260;2022-09-09T06:57:33;15.10;99.90
44671;DHT22;48397;53.016;-2.260;2022-09-09T07:00:13;15.10;99.90
44671;DHT22;48397;53.016;-2.260;2022-09-09T07:02:41;15.20;99.90
44671;DHT22;48397;53.016;-2.260;2022-09-09T07:05:10;15.30;99.90
44671;DHT22;48397;53.016;-2.260;2022-09-09T07:07:42;15.30;99.90
44671;DHT22;48397;53.016;-2.260;2022-09-09T07:10:11;15.40;99.90
44671;DHT22;48397;53.016;-2.260;2022-09-09T07:12:40;15.50;99.90
44671;DHT22;48397;53.016;-2.260;2022-09-09T07:15:10;15.60;99.90
44671;DHT22;48397;53.016;-2.260;2022-09-09T07:17:41;15.60;99.90
44671;DHT22;48397;53.016;-2.260;2022-09-09T07:20:09;15.60;99.90
44671;DHT22;48397;53.016;-2.260;2022-09-09T07:22:37;15.60;99.90
44671;DHT22;48397;53.016;-2.260;2022-09-09T07:25:05;15.70;99.90
44671;DHT22;48397;53.016;-2.260;2022-09-09T07:27:33;15.80;99.90
44671;DHT22;48397;53.016;-2.260;2022-09-09T07:30:02;15.90;99.90
44671;DHT22;48397;53.016;-2.260;2022-09-09T07:32:32;15.90;99.90
44671;DHT22;48397;53.016;-2.260;2022-09-09T07:35:01;15.90;99.90
44671;DHT22;48397;53.016;-2.260;2022-09-09T07:37:29;16.00;99.90
44671;DHT22;48397;53.016;-2.260;2022-09-09T07:42:26;16.10;99.90
44671;DHT22;48397;53.016;-2.260;2022-09-09T07:44:55;16.10;99.90
44671;DHT22;48397;53.016;-2.260;2022-09-09T07:47:23;16.10;99.90
44671;DHT22;48397;53.016;-2.260;2022-09-09T07:49:52;16.30;99.90
44671;DHT22;48397;53.016;-2.260;2022-09-09T07:52:25;16.30;99.90
44671;DHT22;48397;53.016;-2.260;2022-09-09T07:54:56;16.40;99.90
44671;DHT22;48397;53.016;-2.260;2022-09-09T07:57:24;16.40;99.90
44671;DHT22;48397;53.016;-2.260;2022-09-09T07:59:53;16.30;99.90
44671;DHT22;48397;53.016;-2.260;2022-09-09T08:02:22;16.30;99.90
44671;DHT22;48397;53.016;-2.260;2022-09-09T08:04:50;16.30;99.90
44671;DHT22;48397;53.016;-2.260;2022-09-09T08:07:20;16.20;99.90
44671;DHT22;48397;53.016;-2.260;2022-09-09T08:09:53;16.30;99.90
44671;DHT22;48397;53.016;-2.260;2022-09-09T08:12:27;16.30;99.90
44671;DHT22;48397;53.016;-2.260;2022-09-09T08:14:56;16.30;99.90
44671;DHT22;48397;53.016;-2.260;2022-09-09T08:17:29;16.40;99.90
44671;DHT22;48397;53.016;-2.260;2022-09-09T08:19:59;16.50;99.90
44671;DHT22;48397;53.016;-2.260;2022-09-09T08:22:31;16.50;99.90
44671;DHT22;48397;53.016;-2.260;2022-09-09T08:24:59;16.50;99.90
44671;DHT22;48397;53.016;-2.260;2022-09-09T08:27:27;16.70;99.90
44671;DHT22;48397;53.016;-2.260;2022-09-09T08:29:55;16.70;99.90
44671;DHT22;48397;53.016;-2.260;2022-09-09T08:32:24;16.70;99.90
44671;DHT22;48397;53.016;-2.260;2022-09-09T08:34:51;16.80;99.90
44671;DHT22;48397;53.016;-2.260;2022-09-09T08:39:51;16.80;99.90
44671;DHT22;48397;53.016;-2.260;2022-09-09T08:44:59;17.10;99.90
44671;DHT22;48397;53.016;-2.260;2022-09-09T08:47:35;17.10;99.90
44671;DHT22;48397;53.016;-2.260;2022-09-09T08:53:01;17.20;99.90
44671;DHT22;48397;53.016;-2.260;2022-09-09T08:58:30;17.30;99.90
44671;DHT22;48397;53.016;-2.260;2022-09-09T09:04:38;17.40;99.90
44671;DHT22;48397;53.016;-2.260;2022-09-09T09:10:12;17.60;99.90
44671;DHT22;48397;53.016;-2.260;2022-09-09T09:13:18;17.60;99.90
44671;DHT22;48397;53.016;-2.260;2022-09-09T09:16:00;17.70;99.90
44671;DHT22;48397;53.016;-2.260;2022-09-09T09:18:29;17.60;99.90
44671;DHT22;48397;53.016;-2.260;2022-09-09T09:23:59;17.50;99.90
44671;DHT22;48397;53.016;-2.260;2022-09-09T09:26:33;17.50;99.90
44671;DHT22;48397;53.016;-2.260;2022-09-09T09:29:23;17.60;99.90
44671;DHT22;48397;53.016;-2.260;2022-09-09T09:31:55;17.80;99.90
44671;DHT22;48397;53.016;-2.260;2022-09-09T09:34:25;17.80;99.90
44671;DHT22;48397;53.016;-2.260;2022-09-09T09:37:00;17.90;99.90
44671;DHT22;48397;53.016;-2.260;2022-09-09T09:39:34;18.00;99.90
44671;DHT22;48397;53.016;-2.260;2022-09-09T09:42:26;18.10;99.90
44671;DHT22;48397;53.016;-2.260;2022-09-09T09:44:56;18.10;99.90
44671;DHT22;48397;53.016;-2.260;2022-09-09T09:47:34;18.10;99.90
44671;DHT22;48397;53.016;-2.260;2022-09-09T09:50:19;18.30;99.90
44671;DHT22;48397;53.016;-2.260;2022-09-09T09:52:55;18.40;99.90
44671;DHT22;48397;53.016;-2.260;2022-09-09T09:55:26;18.50;99.90
44671;DHT22;48397;53.016;-2.260;2022-09-09T09:58:02;18.70;99.90
44671;DHT22;48397;53.016;-2.260;2022-09-09T10:00:33;18.80;99.90
44671;DHT22;48397;53.016;-2.260;2022-09-09T10:03:28;18.90;99.90
44671;DHT22;48397;53.016;-2.260;2022-09-09T10:05:58;18.90;99.90
44671;DHT22;48397;53.016;-2.260;2022-09-09T10:08:27;18.90;99.90
44671;DHT22;48397;53.016;-2.260;2022-09-09T10:11:12;18.80;99.90
44671;DHT22;48397;53.016;-2.260;2022-09-09T10:19:21;18.50;99.90
44671;DHT22;48397;53.016;-2.260;2022-09-09T10:27:24;18.60;99.90
44671;DHT22;48397;53.016;-2.260;2022-09-09T10:30:17;18.60;99.90
44671;DHT22;48397;53.016;-2.260;2022-09-09T10:32:49;18.70;99.90
44671;DHT22;48397;53.016;-2.260;2022-09-09T10:35:35;18.70;99.90
44671;DHT22;48397;53.016;-2.260;2022-09-09T10:43:37;19.10;99.90
44671;DHT22;48397;53.016;-2.260;2022-09-09T10:49:04;19.20;99.90
44671;DHT22;48397;53.016;-2.260;2022-09-09T10:51:54;19.20;99.90
44671;DHT22;48397;53.016;-2.260;2022-09-09T10:57:25;19.10;99.90
44671;DHT22;48397;53.016;-2.260;2022-09-09T11:00:01;19.00;99.90
44671;DHT22;48397;53.016;-2.260;2022-09-09T11:02:34;19.00;99.90
44671;DHT22;48397;53.016;-2.260;2022-09-09T11:05:51;18.70;99.90
44671;DHT22;48397;53.016;-2.260;2022-09-09T11:07:59;18.70;99.90
44671;DHT22;48397;53.016;-2.260;2022-09-09T11:10:37;18.70;99.90
44671;DHT22;48397;53.016;-2.260;2022-09-09T11:13:45;18.70;99.90
44671;DHT22;48397;53.016;-2.260;2022-09-09T11:16:29;18.90;99.90
44671;DHT22;48397;53.016;-2.260;2022-09-09T11:21:54;19.10;99.90
44671;DHT22;48397;53.016;-2.260;2022-09-09T11:24:47;19.40;99.90
44671;DHT22;48397;53.016;-2.260;2022-09-09T11:27:29;19.30;99.90
44671;DHT22;48397;53.016;-2.260;2022-09-09T11:39:33;19.50;99.90
44671;DHT22;48397;53.016;-2.260;2022-09-09T11:42:19;19.70;99.90
44671;DHT22;48397;53.016;-2.260;2022-09-09T11:44:48;20.10;99.90
44671;DHT22;48397;53.016;-2.260;2022-09-09T11:52:45;20.20;99.90
44671;DHT22;48397;53.016;-2.260;2022-09-09T11:55:28;20.30;99.90
44671;DHT22;48397;53.016;-2.260;2022-09-09T11:58:03;20.40;99.90
44671;DHT22;48397;53.016;-2.260;2022-09-09T12:00:35;20.50;99.90
44671;DHT22;48397;53.016;-2.260;2022-09-09T12:03:05;20.80;99.90
44671;DHT22;48397;53.016;-2.260;2022-09-09T12:05:39;21.10;99.90
44671;DHT22;48397;53.016;-2.260;2022-09-09T12:08:11;21.00;99.90
44671;DHT22;48397;53.016;-2.260;2022-09-09T12:10:54;20.90;99.90
44671;DHT22;48397;53.016;-2.260;2022-09-09T12:13:25;20.60;99.90
44671;DHT22;48397;53.016;-2.260;2022-09-09T12:15:56;20.70;99.90
44671;DHT22;48397;53.016;-2.260;2022-09-09T12:18:36;20.60;99.90
44671;DHT22;48397;53.016;-2.260;2022-09-09T12:23:55;20.50;99.90
44671;DHT22;48397;53.016;-2.260;2022-09-09T12:32:16;20.70;99.90
44671;DHT22;48397;53.016;-2.260;2022-09-09T12:34:59;21.10;99.90
44671;DHT22;48397;53.016;-2.260;2022-09-09T12:37:58;21.10;99.90
44671;DHT22;48397;53.016;-2.260;2022-09-09T12:40:30;21.10;99.90
44671;DHT22;48397;53.016;-2.260;2022-09-09T12:42:59;21.20;99.90
44671;DHT22;48397;53.016;-2.260;2022-09-09T12:45:31;21.30;99.90
44671;DHT22;48397;53.016;-2.260;2022-09-09T12:48:03;21.30;99.90
44671;DHT22;48397;53.016;-2.260;2022-09-09T12:50:37;21.40;99.90
44671;DHT22;48397;53.016;-2.260;2022-09-09T12:53:12;21.40;99.90
44671;DHT22;48397;53.016;-2.260;2022-09-09T12:55:56;21.50;99.90
44671;DHT22;48397;53.016;-2.260;2022-09-09T12:58:25;21.70;99.90
44671;DHT22;48397;53.016;-2.260;2022-09-09T13:00:54;22.00;99.90
44671;DHT22;48397;53.016;-2.260;2022-09-09T13:03:26;22.60;99.90
44671;DHT22;48397;53.016;-2.260;2022-09-09T13:05:58;22.80;99.90
44671;DHT22;48397;53.016;-2.260;2022-09-09T13:08:27;23.10;99.90
44671;DHT22;48397;53.016;-2.260;2022-09-09T13:11:00;23.20;99.90
44671;DHT22;48397;53.016;-2.260;2022-09-09T13:13:36;24.20;99.90
44671;DHT22;48397;53.016;-2.260;2022-09-09T13:16:07;24.00;99.90
44671;DHT22;48397;53.016;-2.260;2022-09-09T13:18:46;20.70;99.90
44671;DHT22;48397;53.016;-2.260;2022-09-09T13:21:14;20.60;99.90
44671;DHT22;48397;53.016;-2.260;2022-09-09T13:23:48;19.40;99.90
44671;DHT22;48397;53.016;-2.260;2022-09-09T13:26:23;18.50;99.90
44671;DHT22;48397;53.016;-2.260;2022-09-09T13:28:52;17.90;99.90
44671;DHT22;48397;53.016;-2.260;2022-09-09T13:31:29;17.50;99.90
44671;DHT22;48397;53.016;-2.260;2022-09-09T13:33:57;17.20;99.90
44671;DHT22;48397;53.016;-2.260;2022-09-09T13:36:29;17.00;99.90
44671;DHT22;48397;53.016;-2.260;2022-09-09T13:38:59;16.90;99.90
44671;DHT22;48397;53.016;-2.260;2022-09-09T13:41:43;16.70;99.90
44671;DHT22;48397;53.016;-2.260;2022-09-09T13:44:23;16.60;99.90
44671;DHT22;48397;53.016;-2.260;2022-09-09T13:47:06;16.60;99.90
44671;DHT22;48397;53.016;-2.260;2022-09-09T13:49:46;16.50;99.90
44671;DHT22;48397;53.016;-2.260;2022-09-09T13:52:18;16.50;99.90
44671;DHT22;48397;53.016;-2.260;2022-09-09T13:54:51;16.40;99.90
44671;DHT22;48397;53.016;-2.260;2022-09-09T13:57:23;16.40;99.90
44671;DHT22;48397;53.016;-2.260;2022-09-09T13:59:54;16.30;99.90
44671;DHT22;48397;53.016;-2.260;2022-09-09T14:02:38;16.30;99.90
44671;DHT22;48397;53.016;-2.260;2022-09-09T14:05:06;16.30;99.90
44671;DHT22;48397;53.016;-2.260;2022-09-09T14:07:34;16.30;99.90
44671;DHT22;48397;53.016;-2.260;2022-09-09T14:10:02;16.30;99.90
44671;DHT22;48397;53.016;-2.260;2022-09-09T14:12:30;16.30;99.90
44671;DHT22;48397;53.016;-2.260;2022-09-09T14:14:58;16.30;99.90
44671;DHT22;48397;53.016;-2.260;2022-09-09T14:17:27;16.40;99.90
44671;DHT22;48397;53.016;-2.260;2022-09-09T14:19:58;16.40;99.90
44671;DHT22;48397;53.016;-2.260;2022-09-09T14:22:25;16.40;99.90
44671;DHT22;48397;53.016;-2.260;2022-09-09T14:24:53;16.50;99.90
44671;DHT22;48397;53.016;-2.260;2022-09-09T14:27:21;16.50;99.90
44671;DHT22;48397;53.016;-2.260;2022-09-09T14:29:49;16.50;99.90
44671;DHT22;48397;53.016;-2.260;2022-09-09T14:32:16;16.50;99.90
44671;DHT22;48397;53.016;-2.260;2022-09-09T14:34:44;16.50;99.90
44671;DHT22;48397;53.016;-2.260;2022-09-09T14:37:12;16.60;99.90
44671;DHT22;48397;53.016;-2.260;2022-09-09T14:39:39;16.60;99.90
44671;DHT22;48397;53.016;-2.260;2022-09-09T14:42:07;16.60;99.90
44671;DHT22;48397;53.016;-2.260;2022-09-09T14:44:36;16.60;99.90
44671;DHT22;48397;53.016;-2.260;2022-09-09T14:47:08;16.70;99.90
44671;DHT22;48397;53.016;-2.260;2022-09-09T14:49:36;16.80;99.90
44671;DHT22;48397;53.016;-2.260;2022-09-09T14:52:07;17.00;99.90
44671;DHT22;48397;53.016;-2.260;2022-09-09T14:54:36;17.50;99.90
44671;DHT22;48397;53.016;-2.260;2022-09-09T14:57:04;18.00;99.90
44671;DHT22;48397;53.016;-2.260;2022-09-09T14:59:31;18.90;99.90
44671;DHT22;48397;53.016;-2.260;2022-09-09T15:01:59;19.60;99.90
44671;DHT22;48397;53.016;-2.260;2022-09-09T15:04:31;19.90;99.90
44671;DHT22;48397;53.016;-2.260;2022-09-09T15:06:59;19.90;99.90
44671;DHT22;48397;53.016;-2.260;2022-09-09T15:09:27;19.80;99.90
44671;DHT22;48397;53.016;-2.260;2022-09-09T15:11:55;19.70;99.90
44671;DHT22;48397;53.016;-2.260;2022-09-09T15:14:23;19.70;99.90
44671;DHT22;48397;53.016;-2.260;2022-09-09T15:16:52;20.50;99.90
44671;DHT22;48397;53.016;-2.260;2022-09-09T15:19:20;20.80;99.90
44671;DHT22;48397;53.016;-2.260;2022-09-09T15:21:48;20.80;99.90
44671;DHT22;48397;53.016;-2.260;2022-09-09T15:24:16;21.30;99.90
44671;DHT22;48397;53.016;-2.260;2022-09-09T15:26:44;21.30;99.90
44671;DHT22;48397;53.016;-2.260;2022-09-09T15:29:12;22.20;99.90
44671;DHT22;48397;53.016;-2.260;2022-09-09T15:31:40;22.20;99.90
44671;DHT22;48397;53.016;-2.260;2022-09-09T15:34:08;21.80;99.90
44671;DHT22;48397;53.016;-2.260;2022-09-09T15:36:38;21.80;99.90
44671;DHT22;48397;53.016;-2.260;2022-09-09T15:39:08;21.30;99.90
44671;DHT22;48397;53.016;-2.260;2022-09-09T15:41:40;20.40;99.90
44671;DHT22;48397;53.016;-2.260;2022-09-09T15:44:08;20.30;99.90
44671;DHT22;48397;53.016;-2.260;2022-09-09T15:46:40;20.00;99.90
44671;DHT22;48397;53.016;-2.260;2022-09-09T15:49:23;19.60;99.90
44671;DHT22;48397;53.016;-2.260;2022-09-09T15:51:59;17.80;99.90
44671;DHT22;48397;53.016;-2.260;2022-09-09T15:54:35;19.50;99.90
44671;DHT22;48397;53.016;-2.260;2022-09-09T15:57:04;19.50;99.90
44671;DHT22;48397;53.016;-2.260;2022-09-09T15:59:32;19.60;99.90
44671;DHT22;48397;53.016;-2.260;2022-09-09T16:02:01;20.30;99.90
44671;DHT22;48397;53.016;-2.260;2022-09-09T16:04:29;20.30;99.90
44671;DHT22;48397;53.016;-2.260;2022-09-09T16:06:59;20.10;99.90
44671;DHT22;48397;53.016;-2.260;2022-09-09T16:09:28;19.30;99.90
44671;DHT22;48397;53.016;-2.260;2022-09-09T16:12:01;19.20;99.90
44671;DHT22;48397;53.016;-2.260;2022-09-09T16:14:30;17.40;99.90
44671;DHT22;48397;53.016;-2.260;2022-09-09T16:17:04;16.80;99.90
44671;DHT22;48397;53.016;-2.260;2022-09-09T16:19:34;16.20;99.90
44671;DHT22;48397;53.016;-2.260;2022-09-09T16:22:03;16.10;99.90
44671;DHT22;48397;53.016;-2.260;2022-09-09T16:24:33;15.60;99.90
44671;DHT22;48397;53.016;-2.260;2022-09-09T16:27:01;15.40;99.90
44671;DHT22;48397;53.016;-2.260;2022-09-09T16:29:30;15.30;99.90
44671;DHT22;48397;53.016;-2.260;2022-09-09T16:31:58;15.30;99.90
44671;DHT22;48397;53.016;-2.260;2022-09-09T16:34:30;15.20;99.90
44671;DHT22;48397;53.016;-2.260;2022-09-09T16:36:58;15.20;99.90
44671;DHT22;48397;53.016;-2.260;2022-09-09T16:39:26;15.00;99.90
44671;DHT22;48397;53.016;-2.260;2022-09-09T16:41:53;15.00;99.90
44671;DHT22;48397;53.016;-2.260;2022-09-09T16:46:49;15.00;99.90
44671;DHT22;48397;53.016;-2.260;2022-09-09T16:49:26;14.90;99.90
44671;DHT22;48397;53.016;-2.260;2022-09-09T16:51:58;14.90;99.90
44671;DHT22;48397;53.016;-2.260;2022-09-09T16:54:26;14.90;99.90
44671;DHT22;48397;53.016;-2.260;2022-09-09T16:56:54;14.90;99.90
44671;DHT22;48397;53.016;-2.260;2022-09-09T16:59:22;14.90;99.90
44671;DHT22;48397;53.016;-2.260;2022-09-09T17:01:51;15.10;99.90
44671;DHT22;48397;53.016;-2.260;2022-09-09T17:04:22;15.10;99.90
44671;DHT22;48397;53.016;-2.260;2022-09-09T17:06:54;15.10;99.90
44671;DHT22;48397;53.016;-2.260;2022-09-09T17:09:22;15.40;99.90
44671;DHT22;48397;53.016;-2.260;2022-09-09T17:11:51;15.30;99.90
44671;DHT22;48397;53.016;-2.260;2022-09-09T17:14:21;15.40;99.90
44671;DHT22;48397;53.016;-2.260;2022-09-09T17:16:49;15.50;99.90
44671;DHT22;48397;53.016;-2.260;2022-09-09T17:19:17;15.50;99.90
44671;DHT22;48397;53.016;-2.260;2022-09-09T17:21:46;15.50;99.90
44671;DHT22;48397;53.016;-2.260;2022-09-09T17:24:35;15.60;99.90
44671;DHT22;48397;53.016;-2.260;2022-09-09T17:27:06;15.60;99.90
44671;DHT22;48397;53.016;-2.260;2022-09-09T17:29:33;15.70;99.90
44671;DHT22;48397;53.016;-2.260;2022-09-09T17:32:03;16.10;99.90
44671;DHT22;48397;53.016;-2.260;2022-09-09T17:34:33;16.70;99.90
44671;DHT22;48397;53.016;-2.260;2022-09-09T17:37:01;16.80;99.90
44671;DHT22;48397;53.016;-2.260;2022-09-09T17:39:28;17.30;99.90
44671;DHT22;48397;53.016;-2.260;2022-09-09T17:41:56;17.30;99.90
44671;DHT22;48397;53.016;-2.260;2022-09-09T17:44:24;17.30;99.90
44671;DHT22;48397;53.016;-2.260;2022-09-09T17:46:52;17.20;99.90